Berwick, Louisiana
Current Conditions -  °F | °C
As of 2:15 PM on Sunday 21 Dec 2014 (Local Time) from KPTN Reporting Station
Overcast Overcast  
Wind Chill: 57°   Ceiling: 3400
Heat Index: 57°   Visibility: 10mi
Dew Point: 52°   Wind: 3mph
Humidity: 82%   Direction: 50°NE
Pressure: 30.03"   Gusts: NA
Location:  29.69°N, 91.22°W
Report Text: KPTN 212015Z AUTO 05003KT 10SM SCT012 OVC034 14/11 A3003 RMK AO1
Loading
Personal Weather Stations






























Interactive Weather Map New forecast layout! Learn more

10-Day Weather Forecast

Advertisements
Track Severe Weather on mobile